Time;durP1;ratioP1;P1;durP2;ratioP2;P2;SDS_P1;SDS_P2;PMS_P1;PMS_P2;Temp;Humidity;BMP_temperature;BMP_pressure;BME280_temperature;BME280_humidity;BME280_pressure;Samples;Min_cycle;Max_cycle;Signal;HPM_P1;HPM_P2
2022/08/20 00:00:55;;;;;;;31.70;30.30;;;22.30;73.50;;;;;;5049165;28;20475;-69
2022/08/20 00:03:26;;;;;;;31.40;30.10;;;22.20;73.70;;;;;;5043068;28;20590;-72
2022/08/20 00:05:58;;;;;;;31.90;30.50;;;22.10;74.00;;;;;;5037153;28;20461;-69
2022/08/20 00:08:26;;;;;;;31.13;29.83;;;22.10;74.00;;;;;;5044095;28;20483;-69
2022/08/20 00:10:55;;;;;;;31.90;30.50;;;22.10;74.20;;;;;;5043222;28;20475;-69
2022/08/20 00:13:25;;;;;;;30.93;29.63;;;22.00;74.40;;;;;;5045902;28;20571;-72
2022/08/20 00:15:53;;;;;;;32.87;31.47;;;22.00;74.50;;;;;;5034135;28;20466;-69
2022/08/20 00:18:22;;;;;;;32.00;30.60;;;22.00;74.60;;;;;;5037839;28;20534;-68
2022/08/20 00:20:53;;;;;;;30.90;29.60;;;21.90;74.90;;;;;;5040073;28;20479;-68
2022/08/20 00:23:21;;;;;;;30.47;29.17;;;21.90;74.90;;;;;;5040311;28;20464;-68
2022/08/20 00:25:49;;;;;;;31.57;30.07;;;21.80;75.20;;;;;;5032108;28;20491;-69
2022/08/20 00:28:17;;;;;;;30.63;29.20;;;21.80;75.50;;;;;;5037910;28;20554;-70
2022/08/20 00:30:46;;;;;;;31.00;29.70;;;21.80;75.60;;;;;;5033818;28;20558;-68
2022/08/20 00:33:15;;;;;;;29.47;28.20;;;21.70;75.70;;;;;;5040662;28;20564;-68
2022/08/20 00:35:45;;;;;;;29.90;28.50;;;21.60;75.90;;;;;;5039195;28;20546;-69
2022/08/20 00:38:13;;;;;;;30.37;29.07;;;21.60;76.00;;;;;;5037693;28;20543;-69
2022/08/20 00:40:43;;;;;;;30.17;28.87;;;21.70;76.00;;;;;;5035936;28;20563;-69
2022/08/20 00:43:31;;;;;;;31.57;30.17;;;21.70;76.00;;;;;;5042362;28;20898;-66
2022/08/20 00:45:59;;;;;;;31.10;29.80;;;21.70;76.00;;;;;;5043462;28;20487;-66
2022/08/20 00:48:31;;;;;;;30.20;28.80;;;21.60;76.00;;;;;;5044388;28;20479;-66
2022/08/20 00:51:04;;;;;;;30.77;29.43;;;21.60;76.30;;;;;;5043629;28;20475;-66
2022/08/20 00:53:33;;;;;;;31.40;29.80;;;21.60;76.40;;;;;;5046013;28;20452;-66
2022/08/20 00:56:00;;;;;;;32.17;30.70;;;21.60;76.50;;;;;;5044389;28;20478;-67
2022/08/20 00:58:29;;;;;;;32.13;30.73;;;21.60;76.30;;;;;;5048107;28;20448;-66
2022/08/20 01:00:57;;;;;;;31.90;30.50;;;21.60;76.30;;;;;;5043694;28;20526;-67
2022/08/20 01:03:24;;;;;;;31.33;29.93;;;21.60;76.40;;;;;;5045526;28;20520;-66
2022/08/20 01:05:52;;;;;;;31.20;29.80;;;21.60;76.40;;;;;;5034081;28;20886;-67
2022/08/20 01:08:22;;;;;;;30.20;28.90;;;21.70;76.00;;;;;;5039138;28;20657;-66
2022/08/20 01:10:52;;;;;;;32.27;30.63;;;21.70;76.10;;;;;;5037764;28;20556;-66
2022/08/20 01:13:24;;;;;;;31.27;29.87;;;21.70;76.00;;;;;;5034149;28;20464;-66
2022/08/20 01:15:55;;;;;;;31.63;30.23;;;21.70;76.20;;;;;;5034436;28;20833;-65
2022/08/20 01:18:27;;;;;;;30.63;29.27;;;21.60;76.30;;;;;;5042309;28;20471;-68
2022/08/20 01:20:57;;;;;;;29.57;28.17;;;21.60;76.40;;;;;;5044126;28;20499;-66
2022/08/20 01:23:33;;;;;;;30.00;28.60;;;21.60;76.40;;;;;;5047939;28;20890;-66
2022/08/20 01:26:07;;;;;;;29.83;28.23;;;21.60;76.40;;;;;;5036293;28;20555;-66
2022/08/20 01:28:43;;;;;;;30.00;28.60;;;21.70;76.20;;;;;;5035223;28;20562;-66
2022/08/20 01:31:12;;;;;;;30.10;28.80;;;21.70;76.10;;;;;;5033434;28;20471;-66
2022/08/20 01:33:40;;;;;;;30.70;29.40;;;21.60;76.40;;;;;;5037140;28;20555;-66
2022/08/20 01:36:09;;;;;;;32.20;30.80;;;21.60;76.50;;;;;;5040732;28;20960;-66
2022/08/20 01:38:37;;;;;;;30.33;29.03;;;21.70;76.30;;;;;;5047402;28;20459;-66
2022/08/20 01:41:18;;;;;;;30.80;29.40;;;21.70;76.20;;;;;;5037769;28;20570;-66
2022/08/20 01:43:46;;;;;;;30.27;28.87;;;21.70;76.40;;;;;;5040544;28;20486;-66
2022/08/20 01:46:13;;;;;;;30.50;29.10;;;21.60;76.50;;;;;;5046900;28;20464;-66
2022/08/20 01:48:41;;;;;;;31.43;30.03;;;21.70;76.40;;;;;;5042588;28;20564;-66
2022/08/20 01:51:14;;;;;;;31.60;30.10;;;21.60;76.50;;;;;;5047576;28;20478;-66
2022/08/20 01:53:43;;;;;;;29.80;28.50;;;21.70;76.30;;;;;;5039618;28;20559;-66
2022/08/20 01:56:14;;;;;;;30.87;29.57;;;21.70;76.30;;;;;;5031967;28;20563;-66
2022/08/20 01:58:48;;;;;;;32.07;30.67;;;21.70;76.40;;;;;;5037644;28;20512;-66
2022/08/20 02:01:24;;;;;;;31.70;30.40;;;21.70;76.40;;;;;;5037321;28;20499;-66
2022/08/20 02:03:52;;;;;;;31.43;30.03;;;21.70;76.50;;;;;;5036350;28;20832;-66
2022/08/20 02:06:23;;;;;;;30.70;29.37;;;21.80;76.20;;;;;;5031785;28;20495;-71
2022/08/20 02:08:50;;;;;;;31.90;30.50;;;21.80;76.00;;;;;;5038950;28;20563;-69
2022/08/20 02:11:19;;;;;;;32.10;30.70;;;21.70;76.20;;;;;;5037336;28;20488;-70
2022/08/20 02:13:51;;;;;;;30.40;29.00;;;21.70;76.40;;;;;;5035103;28;21012;-69
2022/08/20 02:16:20;;;;;;;30.60;29.20;;;21.70;76.60;;;;;;5044347;28;20521;-70
2022/08/20 02:18:48;;;;;;;31.90;30.50;;;21.60;76.60;;;;;;5043106;28;20456;-71
2022/08/20 02:21:15;;;;;;;31.03;29.63;;;21.70;76.60;;;;;;5038401;28;20562;-66
2022/08/20 02:23:42;;;;;;;30.70;29.30;;;21.70;76.50;;;;;;5037589;28;20468;-66
2022/08/20 02:26:09;;;;;;;29.93;28.63;;;21.60;76.70;;;;;;5037677;28;20550;-67
2022/08/20 02:28:37;;;;;;;31.20;29.80;;;21.60;76.90;;;;;;5033908;28;20562;-66
2022/08/20 02:31:07;;;;;;;30.83;29.53;;;21.60;76.80;;;;;;5047159;28;20570;-66
2022/08/20 02:33:35;;;;;;;30.60;29.30;;;21.60;76.70;;;;;;5037878;28;20456;-66
2022/08/20 02:36:02;;;;;;;30.50;29.20;;;21.60;76.90;;;;;;5032891;28;20451;-66
2022/08/20 02:38:29;;;;;;;41.10;39.30;;;21.60;76.90;;;;;;5044375;28;20450;-66
2022/08/20 02:40:56;;;;;;;31.33;30.03;;;21.60;77.20;;;;;;5048023;28;20507;-66
2022/08/20 02:43:23;;;;;;;32.30;30.93;;;21.60;77.10;;;;;;5029861;28;20559;-65
2022/08/20 02:45:51;;;;;;;30.97;29.60;;;21.60;76.90;;;;;;5039710;28;20546;-66
2022/08/20 02:48:27;;;;;;;34.60;33.10;;;21.60;77.00;;;;;;5039664;28;20475;-64
2022/08/20 02:50:56;;;;;;;31.50;30.10;;;21.60;77.00;;;;;;5039805;28;20570;-65
2022/08/20 02:53:24;;;;;;;30.90;29.60;;;21.60;77.00;;;;;;5032022;28;20465;-68
2022/08/20 02:55:51;;;;;;;39.33;37.60;;;21.60;77.00;;;;;;5043813;28;20466;-65
2022/08/20 02:58:20;;;;;;;33.60;32.20;;;21.70;76.90;;;;;;5039408;28;20543;-68
2022/08/20 03:00:47;;;;;;;36.67;35.07;;;21.70;76.80;;;;;;5040882;28;20475;-65
2022/08/20 03:03:19;;;;;;;32.23;30.93;;;21.80;76.60;;;;;;5038954;28;20452;-65
2022/08/20 03:05:46;;;;;;;41.73;39.97;;;21.70;76.70;;;;;;5042631;28;20459;-66
2022/08/20 03:08:14;;;;;;;33.63;32.23;;;21.60;76.90;;;;;;5041137;28;20533;-65
2022/08/20 03:10:43;;;;;;;33.50;32.10;;;21.60;77.10;;;;;;5047293;28;20479;-65
2022/08/20 03:13:11;;;;;;;33.93;32.53;;;21.60;77.20;;;;;;5037088;28;20463;-65
2022/08/20 03:15:40;;;;;;;32.00;30.60;;;21.60;77.20;;;;;;5043438;28;20499;-65
2022/08/20 03:18:07;;;;;;;33.77;32.37;;;21.60;77.20;;;;;;5043296;28;20463;-67
2022/08/20 03:20:35;;;;;;;34.50;33.00;;;21.50;77.30;;;;;;5045157;28;20484;-67
2022/08/20 03:23:02;;;;;;;33.03;31.43;;;21.50;77.40;;;;;;5036393;28;20451;-68
2022/08/20 03:25:29;;;;;;;33.70;32.20;;;21.50;77.40;;;;;;5035627;28;20546;-68
2022/08/20 03:27:57;;;;;;;32.87;31.37;;;21.50;77.70;;;;;;5034314;28;20666;-67
2022/08/20 03:30:29;;;;;;;32.10;30.77;;;21.50;77.70;;;;;;5030529;28;20518;-68
2022/08/20 03:32:57;;;;;;;30.40;29.10;;;21.40;77.70;;;;;;5037336;28;20470;-67
2022/08/20 03:35:26;;;;;;;30.60;29.30;;;21.40;78.00;;;;;;5046595;28;20554;-67
2022/08/20 03:37:55;;;;;;;30.70;29.40;;;21.40;78.00;;;;;;5044845;28;20538;-70
2022/08/20 03:40:24;;;;;;;31.80;30.40;;;21.40;78.00;;;;;;5048830;28;21020;-67
2022/08/20 03:42:52;;;;;;;31.90;30.50;;;21.40;78.30;;;;;;5039849;28;20587;-68
2022/08/20 03:45:20;;;;;;;32.53;31.10;;;21.40;78.30;;;;;;5032374;28;20452;-67
2022/08/20 03:47:48;;;;;;;31.30;29.90;;;21.40;78.20;;;;;;5040903;28;20582;-66
2022/08/20 03:50:15;;;;;;;32.63;31.23;;;21.40;78.20;;;;;;5048697;28;20456;-65
2022/08/20 03:52:42;;;;;;;32.73;31.23;;;21.40;78.10;;;;;;5041569;28;20562;-66
2022/08/20 03:55:12;;;;;;;32.00;30.60;;;21.40;78.20;;;;;;5046450;28;20567;-65
2022/08/20 03:57:44;;;;;;;32.03;30.63;;;21.40;78.20;;;;;;5042571;28;20464;-65
2022/08/20 04:00:19;;;;;;;34.37;32.97;;;21.40;78.40;;;;;;5045824;28;20456;-65
2022/08/20 04:02:46;;;;;;;41.73;39.87;;;21.40;78.40;;;;;;5035509;28;20702;-65
2022/08/20 04:05:13;;;;;;;38.83;37.23;;;21.40;78.30;;;;;;5040930;28;20555;-68
2022/08/20 04:07:41;;;;;;;35.30;33.80;;;21.40;78.30;;;;;;5043676;28;20473;-68
2022/08/20 04:10:12;;;;;;;41.33;39.40;;;21.30;78.50;;;;;;5045793;28;20526;-68
2022/08/20 04:12:39;;;;;;;47.57;45.37;;;21.30;78.80;;;;;;5042503;28;20460;-69
2022/08/20 04:15:09;;;;;;;34.53;33.03;;;21.20;79.10;;;;;;5039180;28;20467;-68
2022/08/20 04:17:40;;;;;;;35.93;34.43;;;21.30;79.20;;;;;;5038716;28;20455;-68
2022/08/20 04:20:08;;;;;;;33.90;32.27;;;21.30;79.00;;;;;;5044933;28;20502;-68
2022/08/20 04:22:35;;;;;;;35.77;34.27;;;21.20;79.20;;;;;;5046033;28;20517;-69
2022/08/20 04:25:03;;;;;;;36.90;35.30;;;21.30;79.10;;;;;;5042083;28;20546;-73
2022/08/20 04:27:32;;;;;;;34.63;33.13;;;21.30;79.20;;;;;;5039945;28;20464;-70
2022/08/20 04:30:01;;;;;;;35.40;33.70;;;21.40;78.80;;;;;;5036930;28;20566;-69
2022/08/20 04:32:27;;;;;;;38.90;37.10;;;21.40;78.60;;;;;;5031084;28;20552;-69
2022/08/20 04:34:54;;;;;;;34.40;32.90;;;21.40;78.60;;;;;;5044273;28;20550;-68
2022/08/20 04:37:22;;;;;;;38.20;36.30;;;21.40;78.60;;;;;;5043568;28;20492;-68
2022/08/20 04:42:32;;;;;;;35.20;33.70;;;21.40;78.80;;;;;;5030174;28;20456;-69
2022/08/20 04:44:59;;;;;;;34.37;32.83;;;21.40;78.90;;;;;;5047668;28;21065;-69
2022/08/20 04:47:26;;;;;;;42.20;40.20;;;21.30;79.10;;;;;;5039797;28;20543;-72
2022/08/20 04:49:59;;;;;;;33.27;31.47;;;21.30;79.30;;;;;;5041047;28;21075;-69
2022/08/20 04:52:26;;;;;;;39.00;37.10;;;21.30;79.50;;;;;;5048367;28;20482;-71
2022/08/20 04:54:55;;;;;;;39.40;37.60;;;21.30;79.60;;;;;;5043589;28;20980;-70
2022/08/20 04:57:22;;;;;;;38.70;36.90;;;21.30;79.40;;;;;;5046404;28;20952;-70
2022/08/20 04:59:51;;;;;;;38.90;37.20;;;21.40;79.30;;;;;;5040761;28;20453;-69
2022/08/20 05:02:18;;;;;;;49.47;46.97;;;21.40;79.20;;;;;;5048859;28;20849;-68
2022/08/20 05:04:46;;;;;;;40.20;38.10;;;21.40;79.20;;;;;;5039932;28;20534;-68
2022/08/20 05:07:13;;;;;;;47.70;45.40;;;21.40;79.10;;;;;;5046328;28;20498;-69
2022/08/20 05:09:40;;;;;;;45.73;43.53;;;21.50;79.10;;;;;;5033024;28;20480;-69
2022/08/20 05:12:08;;;;;;;36.67;34.90;;;21.50;79.20;;;;;;5050175;28;20901;-66
2022/08/20 05:14:35;;;;;;;34.03;32.53;;;21.50;79.10;;;;;;5040681;28;20491;-66
2022/08/20 05:17:05;;;;;;;34.30;32.90;;;21.50;79.00;;;;;;5049555;28;20484;-66
2022/08/20 05:19:34;;;;;;;38.30;36.27;;;21.50;79.00;;;;;;5041776;28;20456;-66
2022/08/20 05:22:02;;;;;;;35.17;33.67;;;21.50;79.10;;;;;;5047127;28;20483;-66
2022/08/20 05:24:29;;;;;;;47.43;45.27;;;21.50;79.00;;;;;;5047221;28;20550;-66
2022/08/20 05:26:56;;;;;;;32.63;31.23;;;21.50;78.90;;;;;;5037381;28;20462;-66
2022/08/20 05:29:24;;;;;;;38.77;36.93;;;21.60;78.80;;;;;;5036356;28;20578;-65
2022/08/20 05:31:51;;;;;;;37.20;35.50;;;21.50;79.00;;;;;;5042560;28;20993;-66
2022/08/20 05:34:19;;;;;;;37.67;35.93;;;21.50;79.20;;;;;;5037548;28;20491;-66
2022/08/20 05:36:50;;;;;;;42.30;40.27;;;21.40;79.50;;;;;;5047538;28;20546;-66
2022/08/20 05:39:17;;;;;;;36.03;34.40;;;21.40;79.30;;;;;;5045834;28;20542;-66
2022/08/20 05:41:44;;;;;;;39.43;37.57;;;21.50;79.30;;;;;;5048753;28;20475;-68
2022/08/20 05:44:13;;;;;;;59.10;56.30;;;21.60;79.00;;;;;;5046282;28;20457;-68
2022/08/20 05:46:42;;;;;;;39.20;37.40;;;21.60;78.90;;;;;;5045596;28;20876;-67
2022/08/20 05:49:09;;;;;;;42.97;40.87;;;21.60;78.90;;;;;;5042552;28;20857;-69
2022/08/20 05:51:38;;;;;;;35.90;34.20;;;21.60;79.00;;;;;;5044239;28;20572;-68
2022/08/20 05:54:05;;;;;;;35.30;33.40;;;21.60;79.20;;;;;;5040355;28;20543;-69
2022/08/20 05:56:33;;;;;;;48.23;45.80;;;21.60;79.30;;;;;;5046305;28;20502;-68
2022/08/20 05:59:03;;;;;;;42.70;40.30;;;21.70;79.10;;;;;;5041302;28;20487;-67
2022/08/20 06:01:31;;;;;;;35.63;33.90;;;21.80;78.90;;;;;;5037739;28;20478;-68
2022/08/20 06:06:43;;;;;;;37.57;35.47;;;22.00;78.30;;;;;;5031922;28;20509;-68
2022/08/20 06:09:10;;;;;;;34.50;32.50;;;22.10;78.00;;;;;;5042449;28;20574;-68
2022/08/20 06:11:37;;;;;;;47.80;45.50;;;22.40;77.30;;;;;;5040289;28;20574;-68
2022/08/20 06:14:04;;;;;;;32.87;31.40;;;22.40;76.80;;;;;;5042916;28;20467;-72
2022/08/20 06:16:31;;;;;;;34.03;31.90;;;22.60;76.20;;;;;;5045349;28;20558;-73
2022/08/20 06:18:59;;;;;;;43.77;41.63;;;22.70;76.20;;;;;;5044300;28;20460;-68
2022/08/20 06:21:26;;;;;;;37.60;35.87;;;22.80;75.50;;;;;;5039034;28;20476;-72
2022/08/20 06:23:54;;;;;;;33.07;31.57;;;22.90;75.40;;;;;;5031769;28;20463;-69
2022/08/20 06:26:22;;;;;;;32.63;31.03;;;22.90;75.50;;;;;;5035652;28;20578;-68
2022/08/20 06:28:49;;;;;;;32.30;30.80;;;23.00;75.30;;;;;;5037513;28;20531;-71
2022/08/20 06:31:16;;;;;;;41.20;39.23;;;22.90;75.20;;;;;;5043371;28;20567;-71
2022/08/20 06:33:43;;;;;;;43.47;41.33;;;22.90;75.50;;;;;;5042337;28;20490;-76
2022/08/20 06:36:10;;;;;;;33.30;31.60;;;23.00;75.30;;;;;;5042319;28;20541;-71
2022/08/20 06:38:37;;;;;;;41.33;39.20;;;22.90;75.50;;;;;;5037355;28;20945;-75
2022/08/20 06:41:08;;;;;;;29.93;28.43;;;23.00;75.30;;;;;;5034843;28;20485;-69
2022/08/20 06:43:34;;;;;;;34.60;33.00;;;23.10;74.80;;;;;;5036846;28;20765;-68
2022/08/20 06:46:01;;;;;;;38.00;36.17;;;23.20;74.60;;;;;;5041540;28;20599;-69
2022/08/20 06:48:29;;;;;;;35.03;33.13;;;23.10;75.00;;;;;;5032457;28;20970;-67
2022/08/20 06:50:56;;;;;;;40.40;38.40;;;23.10;75.00;;;;;;5036690;28;20587;-68
2022/08/20 06:53:22;;;;;;;34.30;31.70;;;23.10;74.70;;;;;;5036519;28;20986;-69
2022/08/20 06:55:52;;;;;;;36.87;35.07;;;23.20;74.60;;;;;;5034322;28;20463;-68
2022/08/20 06:58:21;;;;;;;39.10;37.30;;;23.10;74.90;;;;;;5036025;28;21107;-69
2022/08/20 07:00:48;;;;;;;44.93;42.63;;;23.10;75.00;;;;;;5039541;28;20898;-70
2022/08/20 07:03:15;;;;;;;33.40;31.60;;;23.10;75.10;;;;;;5033976;28;20451;-69
2022/08/20 07:05:44;;;;;;;32.50;30.90;;;23.00;75.00;;;;;;5030689;28;20560;-69
2022/08/20 07:08:13;;;;;;;33.37;31.77;;;23.10;74.90;;;;;;5037776;28;20453;-69
2022/08/20 07:10:41;;;;;;;31.43;30.03;;;23.10;74.90;;;;;;5041143;28;20483;-69
2022/08/20 07:13:09;;;;;;;40.23;38.23;;;23.10;74.80;;;;;;5040994;28;20455;-69
2022/08/20 07:15:38;;;;;;;38.30;36.23;;;23.00;75.10;;;;;;5044104;28;20555;-69
2022/08/20 07:18:06;;;;;;;31.27;29.50;;;23.10;75.10;;;;;;5046132;28;20473;-69
2022/08/20 07:20:35;;;;;;;31.60;29.80;;;23.10;74.90;;;;;;5042637;28;20567;-69
2022/08/20 07:23:02;;;;;;;31.50;29.80;;;23.20;74.80;;;;;;5040307;28;20466;-68
2022/08/20 07:25:32;;;;;;;29.70;28.30;;;23.30;74.90;;;;;;5041551;28;21067;-66
2022/08/20 07:28:03;;;;;;;29.97;28.47;;;23.30;74.80;;;;;;5035712;28;20975;-66
2022/08/20 07:33:17;;;;;;;47.90;45.10;;;23.30;74.50;;;;;;5035577;28;20588;-67
2022/08/20 07:35:47;;;;;;;35.60;33.90;;;23.40;74.30;;;;;;5039171;28;20464;-66
2022/08/20 07:38:22;;;;;;;36.50;34.50;;;23.50;74.00;;;;;;5036685;28;21026;-66
2022/08/20 07:40:50;;;;;;;36.43;34.63;;;23.60;73.80;;;;;;5041253;28;20473;-66
2022/08/20 07:43:17;;;;;;;29.77;28.37;;;23.70;73.70;;;;;;5042126;28;20541;-66
2022/08/20 07:45:44;;;;;;;45.90;43.60;;;24.00;73.20;;;;;;5036788;28;20469;-70
2022/08/20 07:48:13;;;;;;;37.87;35.70;;;24.30;72.40;;;;;;5040510;28;20538;-65
2022/08/20 07:50:42;;;;;;;36.73;34.93;;;24.50;71.50;;;;;;5039540;28;20563;-66
2022/08/20 07:53:10;;;;;;;33.80;32.20;;;24.70;70.50;;;;;;5036756;28;20464;-66
2022/08/20 07:55:40;;;;;;;46.00;43.70;;;24.90;69.60;;;;;;5045759;28;20585;-66
2022/08/20 07:58:10;;;;;;;31.03;29.50;;;24.80;69.70;;;;;;5042053;28;20487;-66
2022/08/20 08:00:37;;;;;;;40.00;37.70;;;25.00;69.50;;;;;;5042968;28;20475;-66
2022/08/20 08:03:04;;;;;;;43.40;41.00;;;25.20;69.40;;;;;;5038643;28;20550;-66
2022/08/20 08:05:32;;;;;;;32.80;31.00;;;25.40;68.60;;;;;;5043733;28;20531;-66
2022/08/20 08:08:01;;;;;;;32.90;31.30;;;25.50;68.50;;;;;;5044375;28;20577;-66
2022/08/20 08:10:29;;;;;;;46.97;44.67;;;25.70;67.70;;;;;;5036554;28;20568;-65
2022/08/20 08:13:00;;;;;;;32.70;31.20;;;25.80;67.50;;;;;;5036246;28;20538;-66
2022/08/20 08:15:30;;;;;;;32.67;30.50;;;25.70;67.30;;;;;;5045099;28;20546;-67
2022/08/20 08:18:04;;;;;;;35.80;33.80;;;25.80;67.50;;;;;;5038972;28;20464;-69
2022/08/20 08:20:32;;;;;;;35.67;33.80;;;25.90;66.60;;;;;;5041778;28;20479;-68
2022/08/20 08:23:02;;;;;;;34.93;32.90;;;25.90;66.90;;;;;;5038108;28;20597;-68
2022/08/20 08:25:29;;;;;;;42.87;40.30;;;26.10;66.70;;;;;;5040637;28;20532;-70
2022/08/20 08:27:59;;;;;;;33.47;31.77;;;26.40;65.90;;;;;;5047154;28;20896;-69
2022/08/20 08:30:27;;;;;;;42.90;39.50;;;26.40;65.80;;;;;;5029763;28;20484;-68
2022/08/20 08:35:39;;;;;;;36.80;34.47;;;26.70;64.60;;;;;;5040626;28;21171;-67
2022/08/20 08:38:07;;;;;;;35.90;34.10;;;26.90;64.40;;;;;;5039676;28;20571;-66
2022/08/20 08:40:34;;;;;;;48.87;46.30;;;27.10;63.80;;;;;;5041300;28;20472;-66
2022/08/20 08:43:03;;;;;;;44.93;42.47;;;27.20;63.30;;;;;;5038941;28;20479;-66
2022/08/20 08:45:42;;;;;;;42.23;39.97;;;27.00;63.80;;;;;;5041206;28;20544;-66
2022/08/20 08:48:10;;;;;;;32.93;31.27;;;27.20;62.90;;;;;;5031721;28;20451;-66
2022/08/20 08:50:38;;;;;;;31.97;30.47;;;27.10;63.00;;;;;;5039899;28;20485;-66
2022/08/20 08:53:08;;;;;;;46.80;44.40;;;27.00;63.10;;;;;;5036303;28;20466;-66
2022/08/20 08:55:35;;;;;;;34.77;33.13;;;26.70;63.20;;;;;;5050300;28;20999;-66
2022/08/20 08:58:04;;;;;;;31.33;29.73;;;26.30;63.70;;;;;;5031318;28;20548;-66
2022/08/20 09:00:32;;;;;;;35.50;33.60;;;26.10;64.40;;;;;;5042393;28;20563;-66
2022/08/20 09:03:03;;;;;;;39.30;37.30;;;25.90;64.70;;;;;;5035464;28;20463;-66
2022/08/20 09:05:37;;;;;;;34.63;32.97;;;25.60;65.20;;;;;;5049905;28;20463;-66
2022/08/20 09:08:10;;;;;;;39.60;37.60;;;25.50;65.70;;;;;;5044813;28;20542;-66
2022/08/20 09:10:37;;;;;;;34.30;32.40;;;25.70;65.40;;;;;;5029947;28;20498;-66
2022/08/20 09:13:04;;;;;;;47.80;45.30;;;25.90;64.60;;;;;;5034578;28;21261;-66
2022/08/20 09:15:31;;;;;;;32.23;30.70;;;25.90;64.70;;;;;;5047069;28;20542;-66
2022/08/20 09:17:59;;;;;;;35.00;33.23;;;25.80;64.90;;;;;;5036713;28;20544;-65
2022/08/20 09:20:26;;;;;;;30.50;28.90;;;25.70;65.40;;;;;;5029465;28;20778;-66
2022/08/20 09:22:53;;;;;;;37.53;35.73;;;25.40;65.50;;;;;;5032326;28;20506;-66
2022/08/20 09:25:21;;;;;;;33.07;31.50;;;25.10;66.10;;;;;;5049246;28;20538;-66
2022/08/20 09:27:48;;;;;;;39.73;37.70;;;24.90;67.10;;;;;;5046987;28;20618;-66
2022/08/20 09:30:16;;;;;;;33.30;31.60;;;24.60;68.00;;;;;;5040530;28;20511;-66
2022/08/20 09:32:43;;;;;;;44.67;42.40;;;24.60;67.40;;;;;;5040438;28;20546;-66
2022/08/20 09:35:12;;;;;;;30.73;29.27;;;24.60;67.20;;;;;;5049278;28;20486;-66
2022/08/20 09:37:39;;;;;;;30.97;29.57;;;24.70;66.60;;;;;;5047869;28;20459;-66
2022/08/20 09:40:09;;;;;;;41.23;39.23;;;24.80;65.90;;;;;;5038187;28;20546;-68
2022/08/20 09:42:38;;;;;;;34.97;33.27;;;24.60;66.20;;;;;;5041375;28;20480;-66
2022/08/20 09:45:06;;;;;;;41.10;39.00;;;24.60;66.80;;;;;;5040192;28;20547;-66
2022/08/20 09:47:33;;;;;;;36.90;35.23;;;24.80;67.80;;;;;;5037625;28;20463;-67
2022/08/20 09:50:00;;;;;;;35.60;33.80;;;24.90;66.50;;;;;;5042992;28;20569;-69
2022/08/20 09:52:29;;;;;;;31.97;30.43;;;24.80;66.60;;;;;;5046278;28;20554;-70
2022/08/20 09:55:00;;;;;;;30.20;28.70;;;24.80;66.90;;;;;;5041911;28;20818;-69
2022/08/20 09:57:27;;;;;;;31.97;30.37;;;24.60;67.30;;;;;;5046751;28;21239;-71
2022/08/20 09:59:59;;;;;;;28.00;26.70;;;24.50;67.70;;;;;;5045254;28;20483;-69
2022/08/20 10:02:26;;;;;;;39.90;37.80;;;24.60;67.70;;;;;;5047479;28;20490;-71
2022/08/20 10:04:53;;;;;;;31.03;29.63;;;24.90;67.20;;;;;;5032600;28;20514;-68
2022/08/20 10:07:20;;;;;;;35.87;33.63;;;24.80;67.00;;;;;;5044323;28;20491;-68
2022/08/20 10:09:47;;;;;;;44.07;41.87;;;24.90;67.20;;;;;;5046670;28;20851;-69
2022/08/20 10:12:14;;;;;;;30.37;29.03;;;25.10;66.80;;;;;;5040222;28;20570;-69
2022/08/20 10:14:41;;;;;;;28.47;27.17;;;25.00;65.80;;;;;;5041698;28;20558;-67
2022/08/20 10:17:09;;;;;;;29.50;28.20;;;24.80;66.60;;;;;;5045705;28;20461;-68
2022/08/20 10:19:36;;;;;;;38.57;36.50;;;24.90;66.20;;;;;;5037648;28;20599;-68
2022/08/20 10:22:04;;;;;;;40.43;38.43;;;25.30;65.50;;;;;;5039592;28;20567;-68
2022/08/20 10:24:31;;;;;;;29.37;28.03;;;25.60;64.60;;;;;;5036568;28;20484;-67
2022/08/20 10:27:00;;;;;;;34.53;32.93;;;25.50;65.10;;;;;;5037435;28;20464;-66
2022/08/20 10:29:29;;;;;;;35.73;33.73;;;25.60;65.10;;;;;;5035491;28;20571;-66
2022/08/20 10:31:57;;;;;;;30.10;28.70;;;25.50;65.60;;;;;;5041278;28;20540;-66
2022/08/20 10:34:26;;;;;;;29.67;28.37;;;24.90;66.70;;;;;;5035795;28;20464;-67
2022/08/20 10:36:53;;;;;;;27.20;25.80;;;24.40;67.90;;;;;;5042357;28;20561;-67
2022/08/20 10:39:20;;;;;;;41.53;39.53;;;24.20;68.90;;;;;;5038210;28;20558;-68
2022/08/20 10:41:47;;;;;;;34.10;32.40;;;24.00;70.00;;;;;;5043785;28;21548;-68
2022/08/20 10:44:14;;;;;;;30.30;29.00;;;24.00;70.20;;;;;;5040259;28;20553;-71
2022/08/20 10:46:41;;;;;;;40.77;38.80;;;24.30;69.90;;;;;;5046587;28;20547;-69
2022/08/20 10:49:07;;;;;;;32.63;31.17;;;24.40;69.10;;;;;;5040427;28;20889;-69
2022/08/20 10:51:36;;;;;;;31.40;30.00;;;24.50;68.10;;;;;;5041842;28;20481;-68
2022/08/20 10:54:03;;;;;;;50.30;48.17;;;24.60;67.30;;;;;;5043125;28;20573;-69
2022/08/20 10:56:30;;;;;;;26.90;25.70;;;24.60;67.30;;;;;;5048445;28;20826;-68
2022/08/20 10:58:57;;;;;;;33.20;31.63;;;24.40;68.40;;;;;;5035462;28;20467;-69
2022/08/20 11:01:24;;;;;;;31.70;30.20;;;24.40;69.10;;;;;;5050840;28;20560;-69
2022/08/20 11:03:50;;;;;;;32.50;31.00;;;24.20;69.60;;;;;;5049039;28;20472;-72
2022/08/20 11:06:17;;;;;;;40.10;38.20;;;24.20;70.00;;;;;;5038832;28;20582;-70
2022/08/20 11:08:46;;;;;;;26.80;25.40;;;24.20;69.20;;;;;;5045353;28;21266;-67
2022/08/20 11:11:13;;;;;;;35.23;33.53;;;24.30;68.40;;;;;;5050017;28;20612;-66
2022/08/20 11:13:39;;;;;;;37.03;35.30;;;24.20;68.20;;;;;;5049465;28;20549;-66
2022/08/20 11:16:07;;;;;;;29.30;28.00;;;24.20;68.50;;;;;;5050462;28;21004;-66
2022/08/20 11:18:34;;;;;;;40.00;38.10;;;24.40;67.80;;;;;;5041094;28;20528;-66
2022/08/20 11:21:01;;;;;;;31.43;30.07;;;24.40;67.20;;;;;;5047900;28;20562;-66
2022/08/20 11:23:28;;;;;;;28.30;27.10;;;24.20;66.40;;;;;;5049423;28;20463;-66
2022/08/20 11:25:57;;;;;;;30.93;29.50;;;24.00;67.30;;;;;;5049711;28;20466;-66
2022/08/20 11:28:24;;;;;;;30.70;29.30;;;24.20;67.00;;;;;;5046373;28;20528;-66
2022/08/20 11:30:51;;;;;;;49.80;47.40;;;24.30;66.70;;;;;;5040196;28;20488;-66
2022/08/20 11:33:18;;;;;;;42.17;40.17;;;24.40;66.80;;;;;;5050348;28;20503;-67
2022/08/20 11:35:45;;;;;;;30.00;28.70;;;24.70;66.90;;;;;;5046889;28;20955;-66
2022/08/20 11:38:12;;;;;;;26.73;25.53;;;25.00;65.80;;;;;;5047136;28;20545;-66
2022/08/20 11:40:39;;;;;;;31.77;30.37;;;25.20;65.30;;;;;;5032466;28;20567;-67
2022/08/20 11:43:07;;;;;;;45.03;42.90;;;25.50;64.40;;;;;;5040356;28;20471;-66
2022/08/20 11:45:34;;;;;;;30.40;29.00;;;25.70;63.90;;;;;;5039087;28;20456;-69
2022/08/20 11:48:01;;;;;;;34.70;33.10;;;26.00;63.30;;;;;;5035827;28;20558;-69
2022/08/20 11:50:28;;;;;;;28.20;26.90;;;26.10;62.60;;;;;;5043928;28;21054;-68
2022/08/20 11:52:55;;;;;;;34.00;32.50;;;26.20;62.60;;;;;;5044792;28;20556;-68
2022/08/20 11:55:22;;;;;;;28.43;27.03;;;26.20;63.00;;;;;;5050824;28;20463;-69
2022/08/20 11:57:49;;;;;;;32.63;31.13;;;26.20;63.30;;;;;;5034120;28;20492;-70
2022/08/20 12:00:20;;;;;;;28.60;27.30;;;26.30;62.90;;;;;;5046253;28;20554;-68
2022/08/20 12:02:50;;;;;;;35.40;33.53;;;26.10;63.70;;;;;;5045555;28;20464;-69
2022/08/20 12:05:17;;;;;;;46.03;43.83;;;26.20;63.90;;;;;;5047254;28;20463;-69
2022/08/20 12:07:44;;;;;;;36.60;34.60;;;26.10;63.90;;;;;;5046027;28;20486;-69
2022/08/20 12:10:12;;;;;;;44.90;42.77;;;26.20;64.20;;;;;;5040925;28;20491;-69
2022/08/20 12:12:39;;;;;;;27.77;26.47;;;26.20;64.10;;;;;;5048288;28;20996;-69
2022/08/20 12:15:09;;;;;;;33.47;31.97;;;26.20;63.00;;;;;;5041839;28;20532;-68
2022/08/20 12:17:38;;;;;;;28.47;27.17;;;26.10;63.90;;;;;;5039933;28;20525;-70
2022/08/20 12:20:08;;;;;;;29.53;28.23;;;26.00;64.00;;;;;;5048460;28;20503;-71
2022/08/20 12:22:36;;;;;;;47.63;45.03;;;26.20;63.50;;;;;;5044066;28;20949;-69
2022/08/20 12:25:03;;;;;;;36.90;35.00;;;26.40;63.00;;;;;;5047722;28;20646;-71
2022/08/20 12:27:32;;;;;;;38.40;36.60;;;26.60;62.60;;;;;;5045553;28;20477;-69
2022/08/20 12:30:01;;;;;;;40.07;37.87;;;26.60;63.10;;;;;;5035886;28;20490;-70
2022/08/20 12:32:30;;;;;;;79.60;72.10;;;26.60;63.10;;;;;;5039017;28;20479;-70
2022/08/20 12:34:59;;;;;;;60.80;56.37;;;26.40;64.10;;;;;;5033050;28;20460;-71
2022/08/20 12:37:28;;;;;;;44.97;41.97;;;26.60;64.20;;;;;;5041620;28;20535;-71
2022/08/20 12:39:57;;;;;;;35.13;33.47;;;26.90;63.30;;;;;;5043182;28;20451;-70
2022/08/20 12:42:24;;;;;;;30.50;29.00;;;26.90;63.10;;;;;;5040970;28;20486;-70
2022/08/20 12:44:51;;;;;;;37.50;35.70;;;27.00;62.50;;;;;;5048171;28;20452;-74